sensor_id;sensor_type;location;lat;lon;timestamp;P1;durP1;ratioP1;P2;durP2;ratioP2
16480;SDS011;44634;54.110;12.138;2022-12-18T00:01:47;46.80;;;16.33;;
16480;SDS011;44634;54.110;12.138;2022-12-18T00:04:18;47.05;;;16.92;;
16480;SDS011;44634;54.110;12.138;2022-12-18T00:06:48;50.03;;;17.30;;
16480;SDS011;44634;54.110;12.138;2022-12-18T00:09:17;38.45;;;14.30;;
16480;SDS011;44634;54.110;12.138;2022-12-18T00:11:49;54.30;;;19.50;;
16480;SDS011;44634;54.110;12.138;2022-12-18T00:14:17;40.47;;;16.47;;
16480;SDS011;44634;54.110;12.138;2022-12-18T00:16:44;40.55;;;13.35;;
16480;SDS011;44634;54.110;12.138;2022-12-18T00:19:13;52.30;;;17.42;;
16480;SDS011;44634;54.110;12.138;2022-12-18T00:21:42;47.20;;;18.37;;
16480;SDS011;44634;54.110;12.138;2022-12-18T00:24:10;51.97;;;17.27;;
16480;SDS011;44634;54.110;12.138;2022-12-18T00:26:40;50.37;;;18.73;;
16480;SDS011;44634;54.110;12.138;2022-12-18T00:29:10;50.40;;;18.17;;
16480;SDS011;44634;54.110;12.138;2022-12-18T00:31:40;52.30;;;18.27;;
16480;SDS011;44634;54.110;12.138;2022-12-18T00:34:09;38.27;;;13.53;;
16480;SDS011;44634;54.110;12.138;2022-12-18T00:36:38;44.73;;;16.33;;
16480;SDS011;44634;54.110;12.138;2022-12-18T00:39:07;49.03;;;16.50;;
16480;SDS011;44634;54.110;12.138;2022-12-18T00:41:37;43.60;;;15.10;;
16480;SDS011;44634;54.110;12.138;2022-12-18T00:44:23;45.60;;;17.60;;
16480;SDS011;44634;54.110;12.138;2022-12-18T00:46:51;53.40;;;17.30;;
16480;SDS011;44634;54.110;12.138;2022-12-18T00:49:19;47.33;;;18.00;;
16480;SDS011;44634;54.110;12.138;2022-12-18T00:51:47;49.13;;;17.07;;
16480;SDS011;44634;54.110;12.138;2022-12-18T00:54:16;38.03;;;15.27;;
16480;SDS011;44634;54.110;12.138;2022-12-18T00:56:44;35.33;;;14.23;;
16480;SDS011;44634;54.110;12.138;2022-12-18T00:59:15;43.73;;;15.70;;
16480;SDS011;44634;54.110;12.138;2022-12-18T01:01:44;51.33;;;17.60;;
16480;SDS011;44634;54.110;12.138;2022-12-18T01:04:13;52.53;;;17.45;;
16480;SDS011;44634;54.110;12.138;2022-12-18T01:06:41;51.33;;;16.23;;
16480;SDS011;44634;54.110;12.138;2022-12-18T01:09:10;49.88;;;16.80;;
16480;SDS011;44634;54.110;12.138;2022-12-18T01:11:37;42.33;;;14.83;;
16480;SDS011;44634;54.110;12.138;2022-12-18T01:14:05;50.60;;;16.52;;
16480;SDS011;44634;54.110;12.138;2022-12-18T01:16:33;50.40;;;16.67;;
16480;SDS011;44634;54.110;12.138;2022-12-18T01:19:02;59.00;;;18.77;;
16480;SDS011;44634;54.110;12.138;2022-12-18T01:21:30;46.17;;;16.10;;
16480;SDS011;44634;54.110;12.138;2022-12-18T01:23:58;50.67;;;18.00;;
16480;SDS011;44634;54.110;12.138;2022-12-18T01:26:26;49.90;;;17.67;;
16480;SDS011;44634;54.110;12.138;2022-12-18T01:28:56;53.28;;;17.88;;
16480;SDS011;44634;54.110;12.138;2022-12-18T01:31:24;52.60;;;19.60;;
16480;SDS011;44634;54.110;12.138;2022-12-18T01:33:54;56.23;;;19.63;;
16480;SDS011;44634;54.110;12.138;2022-12-18T01:36:25;46.60;;;15.53;;
16480;SDS011;44634;54.110;12.138;2022-12-18T01:38:55;49.72;;;18.83;;
16480;SDS011;44634;54.110;12.138;2022-12-18T01:41:24;54.00;;;17.57;;
16480;SDS011;44634;54.110;12.138;2022-12-18T01:47:28;46.83;;;16.83;;
16480;SDS011;44634;54.110;12.138;2022-12-18T01:50:01;53.07;;;18.70;;
16480;SDS011;44634;54.110;12.138;2022-12-18T01:52:33;50.03;;;16.98;;
16480;SDS011;44634;54.110;12.138;2022-12-18T01:55:02;46.72;;;17.13;;
16480;SDS011;44634;54.110;12.138;2022-12-18T01:57:32;46.88;;;16.27;;
16480;SDS011;44634;54.110;12.138;2022-12-18T02:00:03;56.50;;;19.83;;
16480;SDS011;44634;54.110;12.138;2022-12-18T02:02:33;57.47;;;17.80;;
16480;SDS011;44634;54.110;12.138;2022-12-18T02:05:02;37.87;;;14.97;;
16480;SDS011;44634;54.110;12.138;2022-12-18T02:07:36;54.73;;;16.93;;
16480;SDS011;44634;54.110;12.138;2022-12-18T02:10:11;46.60;;;16.83;;
16480;SDS011;44634;54.110;12.138;2022-12-18T02:12:48;51.63;;;18.30;;
16480;SDS011;44634;54.110;12.138;2022-12-18T02:15:22;55.20;;;17.23;;
16480;SDS011;44634;54.110;12.138;2022-12-18T02:17:55;45.83;;;17.10;;
16480;SDS011;44634;54.110;12.138;2022-12-18T02:20:28;46.73;;;16.93;;
16480;SDS011;44634;54.110;12.138;2022-12-18T02:23:06;37.47;;;14.53;;
16480;SDS011;44634;54.110;12.138;2022-12-18T02:25:54;45.63;;;17.20;;
16480;SDS011;44634;54.110;12.138;2022-12-18T02:28:40;44.93;;;16.63;;
16480;SDS011;44634;54.110;12.138;2022-12-18T02:31:13;45.17;;;15.87;;
16480;SDS011;44634;54.110;12.138;2022-12-18T02:33:53;34.97;;;14.40;;
16480;SDS011;44634;54.110;12.138;2022-12-18T02:36:25;48.73;;;16.70;;
16480;SDS011;44634;54.110;12.138;2022-12-18T02:38:55;36.57;;;14.47;;
16480;SDS011;44634;54.110;12.138;2022-12-18T02:41:25;43.80;;;16.17;;
16480;SDS011;44634;54.110;12.138;2022-12-18T02:43:55;38.15;;;14.00;;
16480;SDS011;44634;54.110;12.138;2022-12-18T02:46:31;45.23;;;15.70;;
16480;SDS011;44634;54.110;12.138;2022-12-18T02:49:06;35.20;;;14.32;;
16480;SDS011;44634;54.110;12.138;2022-12-18T02:51:43;40.13;;;15.55;;
16480;SDS011;44634;54.110;12.138;2022-12-18T02:54:20;41.72;;;14.40;;
16480;SDS011;44634;54.110;12.138;2022-12-18T02:57:01;31.40;;;13.70;;
16480;SDS011;44634;54.110;12.138;2022-12-18T02:59:40;47.50;;;15.00;;
16480;SDS011;44634;54.110;12.138;2022-12-18T03:02:17;39.17;;;15.27;;
16480;SDS011;44634;54.110;12.138;2022-12-18T03:04:49;44.93;;;15.43;;
16480;SDS011;44634;54.110;12.138;2022-12-18T03:07:26;42.75;;;15.38;;
16480;SDS011;44634;54.110;12.138;2022-12-18T03:10:01;43.30;;;15.98;;
16480;SDS011;44634;54.110;12.138;2022-12-18T03:12:33;40.03;;;14.65;;
16480;SDS011;44634;54.110;12.138;2022-12-18T03:15:06;43.43;;;15.03;;
16480;SDS011;44634;54.110;12.138;2022-12-18T03:17:44;39.23;;;14.33;;
16480;SDS011;44634;54.110;12.138;2022-12-18T03:20:17;43.53;;;14.77;;
16480;SDS011;44634;54.110;12.138;2022-12-18T03:22:50;43.77;;;15.90;;
16480;SDS011;44634;54.110;12.138;2022-12-18T03:25:23;42.00;;;14.13;;
16480;SDS011;44634;54.110;12.138;2022-12-18T03:27:55;38.27;;;14.43;;
16480;SDS011;44634;54.110;12.138;2022-12-18T03:30:26;44.23;;;15.97;;
16480;SDS011;44634;54.110;12.138;2022-12-18T03:33:00;39.90;;;14.13;;
16480;SDS011;44634;54.110;12.138;2022-12-18T03:35:35;39.80;;;14.70;;
16480;SDS011;44634;54.110;12.138;2022-12-18T03:38:07;39.40;;;15.00;;
16480;SDS011;44634;54.110;12.138;2022-12-18T03:40:37;38.73;;;14.57;;
16480;SDS011;44634;54.110;12.138;2022-12-18T03:43:15;43.08;;;14.38;;
16480;SDS011;44634;54.110;12.138;2022-12-18T03:45:48;39.72;;;14.50;;
16480;SDS011;44634;54.110;12.138;2022-12-18T03:48:23;50.17;;;15.67;;
16480;SDS011;44634;54.110;12.138;2022-12-18T03:50:57;43.43;;;15.73;;
16480;SDS011;44634;54.110;12.138;2022-12-18T03:53:32;37.90;;;13.33;;
16480;SDS011;44634;54.110;12.138;2022-12-18T03:56:04;41.67;;;15.03;;
16480;SDS011;44634;54.110;12.138;2022-12-18T03:58:36;40.70;;;14.40;;
16480;SDS011;44634;54.110;12.138;2022-12-18T04:01:07;39.07;;;14.70;;
16480;SDS011;44634;54.110;12.138;2022-12-18T04:03:38;44.15;;;15.98;;
16480;SDS011;44634;54.110;12.138;2022-12-18T04:06:08;28.90;;;11.30;;
16480;SDS011;44634;54.110;12.138;2022-12-18T04:08:37;37.73;;;14.07;;
16480;SDS011;44634;54.110;12.138;2022-12-18T04:11:06;28.85;;;12.68;;
16480;SDS011;44634;54.110;12.138;2022-12-18T04:13:35;38.70;;;14.13;;
16480;SDS011;44634;54.110;12.138;2022-12-18T04:16:05;40.20;;;14.93;;
16480;SDS011;44634;54.110;12.138;2022-12-18T04:18:33;35.13;;;13.43;;
16480;SDS011;44634;54.110;12.138;2022-12-18T04:21:01;34.70;;;12.60;;
16480;SDS011;44634;54.110;12.138;2022-12-18T04:23:29;32.87;;;12.93;;
16480;SDS011;44634;54.110;12.138;2022-12-18T04:25:57;39.00;;;14.33;;
16480;SDS011;44634;54.110;12.138;2022-12-18T04:28:25;30.43;;;12.87;;
16480;SDS011;44634;54.110;12.138;2022-12-18T04:30:54;32.43;;;12.37;;
16480;SDS011;44634;54.110;12.138;2022-12-18T04:33:22;43.93;;;15.30;;
16480;SDS011;44634;54.110;12.138;2022-12-18T04:35:50;33.13;;;12.77;;
16480;SDS011;44634;54.110;12.138;2022-12-18T04:38:17;32.87;;;12.17;;
16480;SDS011;44634;54.110;12.138;2022-12-18T04:40:45;39.30;;;15.73;;
16480;SDS011;44634;54.110;12.138;2022-12-18T04:43:13;30.37;;;12.43;;
16480;SDS011;44634;54.110;12.138;2022-12-18T04:45:41;30.90;;;12.20;;
16480;SDS011;44634;54.110;12.138;2022-12-18T04:48:10;32.37;;;12.97;;
16480;SDS011;44634;54.110;12.138;2022-12-18T04:50:39;28.60;;;11.05;;
16480;SDS011;44634;54.110;12.138;2022-12-18T04:53:07;30.57;;;12.47;;
16480;SDS011;44634;54.110;12.138;2022-12-18T04:55:35;32.23;;;12.80;;
16480;SDS011;44634;54.110;12.138;2022-12-18T04:58:03;32.90;;;12.33;;
16480;SDS011;44634;54.110;12.138;2022-12-18T05:00:31;31.57;;;11.67;;
16480;SDS011;44634;54.110;12.138;2022-12-18T05:03:00;31.20;;;11.47;;
16480;SDS011;44634;54.110;12.138;2022-12-18T05:05:30;27.03;;;11.50;;
16480;SDS011;44634;54.110;12.138;2022-12-18T05:07:58;27.83;;;10.70;;
16480;SDS011;44634;54.110;12.138;2022-12-18T05:10:26;24.93;;;11.40;;
16480;SDS011;44634;54.110;12.138;2022-12-18T05:13:01;34.17;;;11.97;;
16480;SDS011;44634;54.110;12.138;2022-12-18T05:15:29;33.97;;;12.90;;
16480;SDS011;44634;54.110;12.138;2022-12-18T05:17:57;31.43;;;11.93;;
16480;SDS011;44634;54.110;12.138;2022-12-18T05:20:25;28.92;;;11.60;;
16480;SDS011;44634;54.110;12.138;2022-12-18T05:22:55;32.37;;;12.27;;
16480;SDS011;44634;54.110;12.138;2022-12-18T05:25:24;28.53;;;12.03;;
16480;SDS011;44634;54.110;12.138;2022-12-18T05:27:52;30.13;;;11.80;;
16480;SDS011;44634;54.110;12.138;2022-12-18T05:30:20;28.57;;;11.40;;
16480;SDS011;44634;54.110;12.138;2022-12-18T05:32:48;30.77;;;12.43;;
16480;SDS011;44634;54.110;12.138;2022-12-18T05:35:16;31.30;;;11.77;;
16480;SDS011;44634;54.110;12.138;2022-12-18T05:37:44;25.42;;;10.13;;
16480;SDS011;44634;54.110;12.138;2022-12-18T05:40:13;31.80;;;12.07;;
16480;SDS011;44634;54.110;12.138;2022-12-18T05:42:41;30.63;;;11.67;;
16480;SDS011;44634;54.110;12.138;2022-12-18T05:45:09;32.15;;;11.45;;
16480;SDS011;44634;54.110;12.138;2022-12-18T05:47:37;35.15;;;12.60;;
16480;SDS011;44634;54.110;12.138;2022-12-18T05:50:05;30.33;;;11.53;;
16480;SDS011;44634;54.110;12.138;2022-12-18T05:52:34;25.83;;;11.23;;
16480;SDS011;44634;54.110;12.138;2022-12-18T05:55:02;28.38;;;10.40;;
16480;SDS011;44634;54.110;12.138;2022-12-18T05:57:32;28.07;;;12.17;;
16480;SDS011;44634;54.110;12.138;2022-12-18T06:00:00;32.23;;;12.37;;
16480;SDS011;44634;54.110;12.138;2022-12-18T06:02:27;23.43;;;9.80;;
16480;SDS011;44634;54.110;12.138;2022-12-18T06:04:55;27.40;;;11.03;;
16480;SDS011;44634;54.110;12.138;2022-12-18T06:07:23;24.77;;;10.65;;
16480;SDS011;44634;54.110;12.138;2022-12-18T06:09:51;28.57;;;10.20;;
16480;SDS011;44634;54.110;12.138;2022-12-18T06:12:18;26.67;;;11.33;;
16480;SDS011;44634;54.110;12.138;2022-12-18T06:14:48;23.13;;;10.37;;
16480;SDS011;44634;54.110;12.138;2022-12-18T06:17:16;24.10;;;9.77;;
16480;SDS011;44634;54.110;12.138;2022-12-18T06:19:44;21.77;;;10.05;;
16480;SDS011;44634;54.110;12.138;2022-12-18T06:22:12;29.65;;;10.80;;
16480;SDS011;44634;54.110;12.138;2022-12-18T06:24:39;26.23;;;10.05;;
16480;SDS011;44634;54.110;12.138;2022-12-18T06:27:08;28.50;;;11.60;;
16480;SDS011;44634;54.110;12.138;2022-12-18T06:29:35;22.97;;;9.37;;
16480;SDS011;44634;54.110;12.138;2022-12-18T06:32:05;27.98;;;10.82;;
16480;SDS011;44634;54.110;12.138;2022-12-18T06:34:33;26.50;;;11.32;;
16480;SDS011;44634;54.110;12.138;2022-12-18T06:37:02;28.35;;;11.20;;
16480;SDS011;44634;54.110;12.138;2022-12-18T06:39:30;33.63;;;11.20;;
16480;SDS011;44634;54.110;12.138;2022-12-18T06:41:58;31.23;;;11.93;;
16480;SDS011;44634;54.110;12.138;2022-12-18T06:44:25;33.50;;;10.68;;
16480;SDS011;44634;54.110;12.138;2022-12-18T06:46:53;26.55;;;9.48;;
16480;SDS011;44634;54.110;12.138;2022-12-18T06:49:22;26.47;;;10.83;;
16480;SDS011;44634;54.110;12.138;2022-12-18T06:51:55;23.58;;;9.88;;
16480;SDS011;44634;54.110;12.138;2022-12-18T06:54:23;26.27;;;10.45;;
16480;SDS011;44634;54.110;12.138;2022-12-18T06:56:51;27.08;;;10.90;;
16480;SDS011;44634;54.110;12.138;2022-12-18T06:59:19;28.73;;;10.55;;
16480;SDS011;44634;54.110;12.138;2022-12-18T07:01:46;25.73;;;10.05;;
16480;SDS011;44634;54.110;12.138;2022-12-18T07:04:14;27.20;;;10.80;;
16480;SDS011;44634;54.110;12.138;2022-12-18T07:06:43;28.15;;;11.02;;
16480;SDS011;44634;54.110;12.138;2022-12-18T07:09:11;27.77;;;10.33;;
16480;SDS011;44634;54.110;12.138;2022-12-18T07:11:39;29.60;;;11.13;;
16480;SDS011;44634;54.110;12.138;2022-12-18T07:14:06;24.98;;;10.48;;
16480;SDS011;44634;54.110;12.138;2022-12-18T07:16:34;26.73;;;10.02;;
16480;SDS011;44634;54.110;12.138;2022-12-18T07:19:02;23.15;;;10.15;;
16480;SDS011;44634;54.110;12.138;2022-12-18T07:21:30;32.30;;;11.47;;
16480;SDS011;44634;54.110;12.138;2022-12-18T07:23:59;28.30;;;10.65;;
16480;SDS011;44634;54.110;12.138;2022-12-18T07:26:27;25.55;;;10.95;;
16480;SDS011;44634;54.110;12.138;2022-12-18T07:28:55;27.40;;;10.60;;
16480;SDS011;44634;54.110;12.138;2022-12-18T07:31:24;29.47;;;10.37;;
16480;SDS011;44634;54.110;12.138;2022-12-18T07:33:52;26.30;;;11.30;;
16480;SDS011;44634;54.110;12.138;2022-12-18T07:36:20;24.98;;;10.77;;
16480;SDS011;44634;54.110;12.138;2022-12-18T07:38:51;20.15;;;9.25;;
16480;SDS011;44634;54.110;12.138;2022-12-18T07:41:20;29.02;;;11.35;;
16480;SDS011;44634;54.110;12.138;2022-12-18T07:43:49;31.77;;;11.30;;
16480;SDS011;44634;54.110;12.138;2022-12-18T07:46:17;35.15;;;12.25;;
16480;SDS011;44634;54.110;12.138;2022-12-18T07:48:45;24.33;;;10.25;;
16480;SDS011;44634;54.110;12.138;2022-12-18T07:51:15;28.73;;;9.40;;
16480;SDS011;44634;54.110;12.138;2022-12-18T07:53:44;32.10;;;11.30;;
16480;SDS011;44634;54.110;12.138;2022-12-18T07:56:14;29.30;;;11.88;;
16480;SDS011;44634;54.110;12.138;2022-12-18T07:58:55;21.80;;;9.73;;
16480;SDS011;44634;54.110;12.138;2022-12-18T08:01:23;26.33;;;10.25;;
16480;SDS011;44634;54.110;12.138;2022-12-18T08:03:51;24.85;;;10.10;;
16480;SDS011;44634;54.110;12.138;2022-12-18T08:06:19;25.10;;;10.18;;
16480;SDS011;44634;54.110;12.138;2022-12-18T08:08:50;26.85;;;9.95;;
16480;SDS011;44634;54.110;12.138;2022-12-18T08:11:19;27.50;;;11.73;;
16480;SDS011;44634;54.110;12.138;2022-12-18T08:13:47;31.25;;;10.18;;
16480;SDS011;44634;54.110;12.138;2022-12-18T08:16:16;21.43;;;8.17;;
16480;SDS011;44634;54.110;12.138;2022-12-18T08:18:46;19.80;;;9.47;;
16480;SDS011;44634;54.110;12.138;2022-12-18T08:21:16;29.53;;;11.37;;
16480;SDS011;44634;54.110;12.138;2022-12-18T08:23:47;28.57;;;10.03;;
16480;SDS011;44634;54.110;12.138;2022-12-18T08:26:16;31.97;;;11.07;;
16480;SDS011;44634;54.110;12.138;2022-12-18T08:28:46;26.60;;;11.43;;
16480;SDS011;44634;54.110;12.138;2022-12-18T08:31:16;20.67;;;9.50;;
16480;SDS011;44634;54.110;12.138;2022-12-18T08:33:44;27.33;;;10.53;;
16480;SDS011;44634;54.110;12.138;2022-12-18T08:36:12;26.47;;;11.10;;
16480;SDS011;44634;54.110;12.138;2022-12-18T08:38:40;31.30;;;10.43;;
16480;SDS011;44634;54.110;12.138;2022-12-18T08:41:08;24.47;;;10.47;;
16480;SDS011;44634;54.110;12.138;2022-12-18T08:43:37;26.07;;;10.60;;
16480;SDS011;44634;54.110;12.138;2022-12-18T08:46:27;27.77;;;11.20;;
16480;SDS011;44634;54.110;12.138;2022-12-18T08:49:01;20.97;;;9.67;;
16480;SDS011;44634;54.110;12.138;2022-12-18T08:51:29;28.13;;;11.17;;
16480;SDS011;44634;54.110;12.138;2022-12-18T08:53:57;28.27;;;12.17;;
16480;SDS011;44634;54.110;12.138;2022-12-18T08:56:25;26.30;;;11.50;;
16480;SDS011;44634;54.110;12.138;2022-12-18T08:58:53;25.80;;;10.63;;
16480;SDS011;44634;54.110;12.138;2022-12-18T09:01:21;21.73;;;10.37;;
16480;SDS011;44634;54.110;12.138;2022-12-18T09:03:51;26.77;;;10.13;;
16480;SDS011;44634;54.110;12.138;2022-12-18T09:06:20;25.57;;;10.97;;
16480;SDS011;44634;54.110;12.138;2022-12-18T09:08:48;24.60;;;9.97;;
16480;SDS011;44634;54.110;12.138;2022-12-18T09:11:18;27.33;;;10.50;;
16480;SDS011;44634;54.110;12.138;2022-12-18T09:13:48;17.57;;;7.70;;
16480;SDS011;44634;54.110;12.138;2022-12-18T09:16:16;22.37;;;9.47;;
16480;SDS011;44634;54.110;12.138;2022-12-18T09:18:45;18.40;;;9.40;;
16480;SDS011;44634;54.110;12.138;2022-12-18T09:21:15;19.43;;;8.87;;
16480;SDS011;44634;54.110;12.138;2022-12-18T09:23:48;21.57;;;9.37;;
16480;SDS011;44634;54.110;12.138;2022-12-18T09:26:16;21.27;;;8.97;;
16480;SDS011;44634;54.110;12.138;2022-12-18T09:28:44;20.20;;;8.77;;
16480;SDS011;44634;54.110;12.138;2022-12-18T09:31:12;17.33;;;7.50;;
16480;SDS011;44634;54.110;12.138;2022-12-18T09:33:43;20.83;;;9.90;;
16480;SDS011;44634;54.110;12.138;2022-12-18T09:36:13;20.40;;;8.40;;
16480;SDS011;44634;54.110;12.138;2022-12-18T09:38:44;16.87;;;7.40;;
16480;SDS011;44634;54.110;12.138;2022-12-18T09:41:17;21.50;;;9.47;;
16480;SDS011;44634;54.110;12.138;2022-12-18T09:44:01;20.50;;;8.77;;
16480;SDS011;44634;54.110;12.138;2022-12-18T09:46:32;18.00;;;7.40;;
16480;SDS011;44634;54.110;12.138;2022-12-18T09:49:07;19.23;;;8.43;;
16480;SDS011;44634;54.110;12.138;2022-12-18T09:51:43;20.60;;;9.67;;
16480;SDS011;44634;54.110;12.138;2022-12-18T09:54:16;15.97;;;7.73;;
16480;SDS011;44634;54.110;12.138;2022-12-18T09:56:49;15.30;;;7.17;;
16480;SDS011;44634;54.110;12.138;2022-12-18T09:59:18;17.23;;;8.10;;
16480;SDS011;44634;54.110;12.138;2022-12-18T10:01:51;20.27;;;9.40;;
16480;SDS011;44634;54.110;12.138;2022-12-18T10:04:19;15.33;;;7.77;;
16480;SDS011;44634;54.110;12.138;2022-12-18T10:06:50;21.00;;;9.27;;
16480;SDS011;44634;54.110;12.138;2022-12-18T10:09:24;18.97;;;8.90;;
16480;SDS011;44634;54.110;12.138;2022-12-18T10:12:00;24.17;;;9.83;;
16480;SDS011;44634;54.110;12.138;2022-12-18T10:14:36;16.77;;;7.67;;
16480;SDS011;44634;54.110;12.138;2022-12-18T10:17:13;22.87;;;10.20;;
16480;SDS011;44634;54.110;12.138;2022-12-18T10:19:49;22.60;;;10.90;;
16480;SDS011;44634;54.110;12.138;2022-12-18T10:22:25;20.23;;;9.60;;
16480;SDS011;44634;54.110;12.138;2022-12-18T10:25:00;19.70;;;9.53;;
16480;SDS011;44634;54.110;12.138;2022-12-18T10:27:32;20.67;;;9.33;;
16480;SDS011;44634;54.110;12.138;2022-12-18T10:29:59;21.03;;;9.57;;
16480;SDS011;44634;54.110;12.138;2022-12-18T10:32:32;20.90;;;9.43;;
16480;SDS011;44634;54.110;12.138;2022-12-18T10:35:00;21.60;;;9.77;;
16480;SDS011;44634;54.110;12.138;2022-12-18T10:37:29;16.40;;;7.97;;
16480;SDS011;44634;54.110;12.138;2022-12-18T10:40:08;16.00;;;7.43;;
16480;SDS011;44634;54.110;12.138;2022-12-18T10:42:45;15.63;;;7.37;;
16480;SDS011;44634;54.110;12.138;2022-12-18T10:45:14;22.10;;;9.40;;
16480;SDS011;44634;54.110;12.138;2022-12-18T10:47:43;20.33;;;10.17;;
16480;SDS011;44634;54.110;12.138;2022-12-18T10:50:18;21.90;;;10.07;;
16480;SDS011;44634;54.110;12.138;2022-12-18T10:53:13;19.20;;;9.67;;
16480;SDS011;44634;54.110;12.138;2022-12-18T10:55:47;19.27;;;9.13;;
16480;SDS011;44634;54.110;12.138;2022-12-18T10:58:16;17.30;;;7.87;;
16480;SDS011;44634;54.110;12.138;2022-12-18T11:01:02;21.57;;;8.53;;
16480;SDS011;44634;54.110;12.138;2022-12-18T11:03:36;23.87;;;9.77;;
16480;SDS011;44634;54.110;12.138;2022-12-18T11:06:06;20.83;;;9.70;;
16480;SDS011;44634;54.110;12.138;2022-12-18T11:08:38;20.47;;;8.33;;
16480;SDS011;44634;54.110;12.138;2022-12-18T11:11:07;21.13;;;8.67;;
16480;SDS011;44634;54.110;12.138;2022-12-18T11:13:48;24.67;;;9.80;;
16480;SDS011;44634;54.110;12.138;2022-12-18T11:16:24;21.30;;;9.37;;
16480;SDS011;44634;54.110;12.138;2022-12-18T11:18:53;24.50;;;10.20;;
16480;SDS011;44634;54.110;12.138;2022-12-18T11:21:22;21.77;;;10.67;;
16480;SDS011;44634;54.110;12.138;2022-12-18T11:23:52;30.30;;;10.40;;
16480;SDS011;44634;54.110;12.138;2022-12-18T11:26:21;28.87;;;10.77;;
16480;SDS011;44634;54.110;12.138;2022-12-18T11:29:07;22.67;;;8.07;;
16480;SDS011;44634;54.110;12.138;2022-12-18T11:31:36;23.57;;;10.97;;
16480;SDS011;44634;54.110;12.138;2022-12-18T11:34:04;27.90;;;8.77;;
16480;SDS011;44634;54.110;12.138;2022-12-18T11:36:55;23.47;;;10.50;;
16480;SDS011;44634;54.110;12.138;2022-12-18T11:39:30;23.03;;;8.67;;
16480;SDS011;44634;54.110;12.138;2022-12-18T11:42:05;25.67;;;11.67;;
16480;SDS011;44634;54.110;12.138;2022-12-18T11:44:42;24.17;;;9.53;;
16480;SDS011;44634;54.110;12.138;2022-12-18T11:47:16;25.63;;;11.30;;
16480;SDS011;44634;54.110;12.138;2022-12-18T11:49:51;24.67;;;11.83;;
16480;SDS011;44634;54.110;12.138;2022-12-18T11:52:23;25.73;;;11.80;;
16480;SDS011;44634;54.110;12.138;2022-12-18T11:54:56;23.43;;;10.40;;
16480;SDS011;44634;54.110;12.138;2022-12-18T11:57:30;24.53;;;9.60;;
16480;SDS011;44634;54.110;12.138;2022-12-18T12:00:10;13.73;;;7.43;;
16480;SDS011;44634;54.110;12.138;2022-12-18T12:02:44;25.87;;;11.33;;
16480;SDS011;44634;54.110;12.138;2022-12-18T12:05:35;25.07;;;9.10;;
16480;SDS011;44634;54.110;12.138;2022-12-18T12:08:10;22.17;;;10.10;;
16480;SDS011;44634;54.110;12.138;2022-12-18T12:10:48;18.13;;;9.57;;
16480;SDS011;44634;54.110;12.138;2022-12-18T12:13:28;26.47;;;10.60;;
16480;SDS011;44634;54.110;12.138;2022-12-18T12:16:14;22.13;;;10.30;;
16480;SDS011;44634;54.110;12.138;2022-12-18T12:18:48;28.03;;;10.97;;
16480;SDS011;44634;54.110;12.138;2022-12-18T12:21:33;23.80;;;9.80;;
16480;SDS011;44634;54.110;12.138;2022-12-18T12:24:11;22.53;;;10.17;;
16480;SDS011;44634;54.110;12.138;2022-12-18T12:26:59;22.30;;;8.60;;
16480;SDS011;44634;54.110;12.138;2022-12-18T12:29:40;25.83;;;10.77;;
16480;SDS011;44634;54.110;12.138;2022-12-18T12:32:22;20.37;;;9.30;;
16480;SDS011;44634;54.110;12.138;2022-12-18T12:35:02;21.67;;;10.50;;
16480;SDS011;44634;54.110;12.138;2022-12-18T12:37:43;24.23;;;10.97;;
16480;SDS011;44634;54.110;12.138;2022-12-18T12:40:20;25.57;;;11.50;;
16480;SDS011;44634;54.110;12.138;2022-12-18T12:43:16;16.97;;;8.37;;
16480;SDS011;44634;54.110;12.138;2022-12-18T12:45:49;15.00;;;8.50;;
16480;SDS011;44634;54.110;12.138;2022-12-18T12:48:24;15.00;;;7.70;;
16480;SDS011;44634;54.110;12.138;2022-12-18T12:51:00;26.53;;;11.17;;
16480;SDS011;44634;54.110;12.138;2022-12-18T12:53:32;22.23;;;10.30;;
16480;SDS011;44634;54.110;12.138;2022-12-18T12:56:06;18.73;;;10.40;;
16480;SDS011;44634;54.110;12.138;2022-12-18T12:58:41;21.07;;;9.03;;
16480;SDS011;44634;54.110;12.138;2022-12-18T13:01:17;22.27;;;10.50;;
16480;SDS011;44634;54.110;12.138;2022-12-18T13:03:54;24.07;;;10.50;;
16480;SDS011;44634;54.110;12.138;2022-12-18T13:06:33;22.00;;;9.37;;
16480;SDS011;44634;54.110;12.138;2022-12-18T13:09:10;21.43;;;9.63;;
16480;SDS011;44634;54.110;12.138;2022-12-18T13:11:38;22.93;;;9.73;;
16480;SDS011;44634;54.110;12.138;2022-12-18T13:14:42;27.37;;;11.23;;
16480;SDS011;44634;54.110;12.138;2022-12-18T13:17:17;12.77;;;6.23;;
16480;SDS011;44634;54.110;12.138;2022-12-18T13:20:06;12.80;;;7.03;;
16480;SDS011;44634;54.110;12.138;2022-12-18T13:22:38;20.33;;;8.93;;
16480;SDS011;44634;54.110;12.138;2022-12-18T13:25:27;29.63;;;11.97;;
16480;SDS011;44634;54.110;12.138;2022-12-18T13:28:07;22.73;;;10.83;;
16480;SDS011;44634;54.110;12.138;2022-12-18T13:30:43;25.00;;;9.80;;
16480;SDS011;44634;54.110;12.138;2022-12-18T13:36:34;25.33;;;10.70;;
16480;SDS011;44634;54.110;12.138;2022-12-18T13:39:09;20.83;;;9.53;;
16480;SDS011;44634;54.110;12.138;2022-12-18T13:45:41;25.50;;;11.33;;
16480;SDS011;44634;54.110;12.138;2022-12-18T13:48:17;29.17;;;10.53;;
16480;SDS011;44634;54.110;12.138;2022-12-18T13:50:48;25.40;;;9.50;;
16480;SDS011;44634;54.110;12.138;2022-12-18T13:53:20;18.10;;;8.93;;
16480;SDS011;44634;54.110;12.138;2022-12-18T13:55:51;21.07;;;9.30;;
16480;SDS011;44634;54.110;12.138;2022-12-18T13:58:19;21.37;;;9.03;;
16480;SDS011;44634;54.110;12.138;2022-12-18T14:00:49;24.70;;;11.43;;
16480;SDS011;44634;54.110;12.138;2022-12-18T14:03:18;22.20;;;10.97;;
16480;SDS011;44634;54.110;12.138;2022-12-18T14:05:52;23.10;;;9.70;;
16480;SDS011;44634;54.110;12.138;2022-12-18T14:08:22;24.97;;;11.13;;
16480;SDS011;44634;54.110;12.138;2022-12-18T14:10:54;28.20;;;10.17;;
16480;SDS011;44634;54.110;12.138;2022-12-18T14:13:24;22.53;;;11.00;;
16480;SDS011;44634;54.110;12.138;2022-12-18T14:15:56;21.90;;;10.10;;
16480;SDS011;44634;54.110;12.138;2022-12-18T14:18:30;18.63;;;8.83;;
16480;SDS011;44634;54.110;12.138;2022-12-18T14:21:04;28.70;;;10.67;;
16480;SDS011;44634;54.110;12.138;2022-12-18T14:23:33;28.90;;;12.23;;
16480;SDS011;44634;54.110;12.138;2022-12-18T14:26:17;30.40;;;13.33;;
16480;SDS011;44634;54.110;12.138;2022-12-18T14:28:48;29.60;;;11.47;;
16480;SDS011;44634;54.110;12.138;2022-12-18T14:31:18;22.60;;;9.03;;
16480;SDS011;44634;54.110;12.138;2022-12-18T14:33:47;30.87;;;12.43;;
16480;SDS011;44634;54.110;12.138;2022-12-18T14:36:16;26.70;;;11.83;;
16480;SDS011;44634;54.110;12.138;2022-12-18T14:38:47;19.60;;;9.33;;
16480;SDS011;44634;54.110;12.138;2022-12-18T14:41:17;35.20;;;13.00;;
16480;SDS011;44634;54.110;12.138;2022-12-18T14:43:47;17.17;;;8.60;;
16480;SDS011;44634;54.110;12.138;2022-12-18T14:46:27;25.80;;;11.13;;
16480;SDS011;44634;54.110;12.138;2022-12-18T14:48:57;27.77;;;10.80;;